< < Back
Terminal Aerodrome Forecast


Current Version              Previous Versions:   1  2  3  4  5  6  7  8  9  

Terminal Aerodrome Forecast

372
FTUS42 KFFC 192321
TAFAHN
TAF
KAHN 192321Z 2000/2024 07003KT P6SM OVC200
     FM200400 05003KT P6SM VCSH OVC070
     FM200700 00000KT 6SM -RA BR OVC050
     FM201200 06004KT 5SM -RA BR OVC025
     FM201600 07005KT P6SM VCSH OVC028
     FM202100 08005KT P6SM BKN035=

Latest METAR

871
SAUS70 KWBC 200500 RRA
MTRAHN
METAR KAHN 200451Z AUTO 00000KT 10SM SCT070 BKN090 OVC110 09/04 A3016
RMK AO2 SLP213 T00890039 401500017


USA.gov is the U.S. government's official web portal to all federal, state and local government web resources and services.